createdAt,value
2023-03-20T00:01:51.568Z,101646.69
2023-03-20T00:03:53.480Z,101643.25
2023-03-20T00:05:55.332Z,101644.47
2023-03-20T00:07:57.830Z,101636.53
2023-03-20T00:09:59.600Z,101629.59
2023-03-20T00:12:01.490Z,101628.59
2023-03-20T00:14:06.522Z,101634.22
2023-03-20T00:16:08.610Z,101625.13
2023-03-20T00:18:16.637Z,101619.66
2023-03-20T00:20:18.790Z,101624.69
2023-03-20T00:22:20.584Z,101630.28
2023-03-20T00:24:23.502Z,101642.25
2023-03-20T00:26:28.414Z,101637.25
2023-03-20T00:28:37.581Z,101641.56
2023-03-20T00:30:39.338Z,101642.25
2023-03-20T00:32:41.274Z,101644.75
2023-03-20T00:34:43.131Z,101632.34
2023-03-20T00:36:44.978Z,101638.53
2023-03-20T00:38:46.788Z,101647.50
2023-03-20T00:40:48.508Z,101647.44
2023-03-20T00:42:57.209Z,101639.00
2023-03-20T00:44:59.750Z,101634.94
2023-03-20T00:47:04.374Z,101643.91
2023-03-20T00:49:06.555Z,101639.47
2023-03-20T00:51:08.277Z,101637.50
2023-03-20T00:53:12.172Z,101635.56
2023-03-20T00:55:14.172Z,101640.34
2023-03-20T00:57:21.729Z,101643.13
2023-03-20T00:59:26.877Z,101641.47
2023-03-20T01:01:29.808Z,101642.53
2023-03-20T01:03:32.271Z,101640.91
2023-03-20T01:05:34.302Z,101643.63
2023-03-20T01:07:36.695Z,101638.72
2023-03-20T01:09:38.362Z,101646.44
2023-03-20T01:11:41.200Z,101641.50
2023-03-20T01:13:43.130Z,101635.44
2023-03-20T01:15:44.997Z,101639.72
2023-03-20T01:17:47.074Z,101634.94
2023-03-20T01:19:49.493Z,101632.44
2023-03-20T01:21:51.613Z,101625.19
2023-03-20T01:23:53.372Z,101633.25
2023-03-20T01:25:55.096Z,101642.75
2023-03-20T01:27:58.184Z,101631.59
2023-03-20T01:29:59.824Z,101630.38
2023-03-20T01:32:01.788Z,101630.47
2023-03-20T01:34:03.821Z,101629.50
2023-03-20T01:36:05.842Z,101629.59
2023-03-20T01:38:19.031Z,101625.28
2023-03-20T01:40:37.318Z,101624.41
2023-03-20T01:42:39.198Z,101626.81
2023-03-20T01:44:40.882Z,101625.25
2023-03-20T01:46:42.840Z,101625.81
2023-03-20T01:49:28.456Z,101625.44
2023-03-20T01:51:36.315Z,101617.75
2023-03-20T01:53:38.097Z,101618.91
2023-03-20T01:55:42.227Z,101615.53
2023-03-20T01:57:44.459Z,101610.03
2023-03-20T01:59:48.726Z,101617.22
2023-03-20T02:01:51.260Z,101622.78
2023-03-20T02:03:53.655Z,101621.53
2023-03-20T02:05:58.681Z,101613.25
2023-03-20T02:08:16.974Z,101617.47
2023-03-20T02:10:19.695Z,101618.56
2023-03-20T02:12:22.057Z,101610.53
2023-03-20T02:14:24.160Z,101604.16
2023-03-20T02:16:26.270Z,101600.72
2023-03-20T02:18:28.681Z,101587.97
2023-03-20T02:20:59.142Z,101593.69
2023-03-20T02:23:09.878Z,101594.03
2023-03-20T02:25:43.835Z,101589.00
2023-03-20T02:28:28.494Z,101574.84
2023-03-20T02:30:43.268Z,101575.41
2023-03-20T02:32:54.411Z,101572.91
2023-03-20T02:35:17.592Z,101578.03
2023-03-20T02:37:42.936Z,101558.34
2023-03-20T02:39:53.074Z,101559.44
2023-03-20T02:41:58.938Z,101553.31
2023-03-20T02:44:11.827Z,101554.56
2023-03-20T02:46:31.766Z,101556.81
2023-03-20T02:49:27.137Z,101555.53
2023-03-20T02:51:58.020Z,101543.34
2023-03-20T02:54:32.403Z,101539.66
2023-03-20T02:57:09.300Z,101528.97
2023-03-20T02:59:33.547Z,101534.06
2023-03-20T03:01:53.294Z,101527.47
2023-03-20T03:04:02.320Z,101542.59
2023-03-20T03:06:27.708Z,101537.44
2023-03-20T03:08:34.582Z,101539.09
2023-03-20T03:10:41.909Z,101534.41
2023-03-20T03:12:47.071Z,101528.91
2023-03-20T03:15:00.680Z,101526.00
2023-03-20T03:17:06.042Z,101528.00
2023-03-20T03:19:12.239Z,101537.56
2023-03-20T03:21:18.722Z,101540.34
2023-03-20T03:23:28.290Z,101529.69
2023-03-20T03:25:35.242Z,101519.84
2023-03-20T03:27:50.437Z,101532.59
2023-03-20T03:30:03.543Z,101521.13
2023-03-20T03:32:07.686Z,101526.09
2023-03-20T03:34:16.144Z,101528.16
2023-03-20T03:36:36.406Z,101515.28
2023-03-20T03:38:54.624Z,101512.19
2023-03-20T03:41:02.276Z,101522.31
2023-03-20T03:43:18.968Z,101509.34
2023-03-20T03:45:36.103Z,101511.28
2023-03-20T03:48:02.218Z,101521.00
2023-03-20T03:50:11.848Z,101515.19
2023-03-20T03:52:21.355Z,101510.09
2023-03-20T03:54:28.613Z,101513.00
2023-03-20T03:56:33.653Z,101520.41
2023-03-20T03:58:42.400Z,101513.50
2023-03-20T04:00:48.140Z,101513.69
2023-03-20T04:02:53.400Z,101514.66
2023-03-20T04:04:55.481Z,101509.63
2023-03-20T04:06:57.195Z,101515.81
2023-03-20T04:08:58.992Z,101508.81
2023-03-20T04:11:00.758Z,101518.78
2023-03-20T04:13:02.435Z,101512.19
2023-03-20T04:15:05.797Z,101501.25
2023-03-20T04:17:07.467Z,101508.00
2023-03-20T04:19:09.235Z,101501.31
2023-03-20T04:21:11.886Z,101494.78
2023-03-20T04:23:14.780Z,101492.00
2023-03-20T04:25:22.620Z,101496.38
2023-03-20T04:27:24.459Z,101500.53
2023-03-20T04:29:26.446Z,101491.41
2023-03-20T04:31:28.744Z,101497.81
2023-03-20T04:33:31.313Z,101492.44
2023-03-20T04:35:33.039Z,101492.81
2023-03-20T04:37:34.694Z,101502.97
2023-03-20T04:39:37.508Z,101502.59
2023-03-20T04:41:48.139Z,101511.13
2023-03-20T04:43:49.774Z,101507.50
2023-03-20T04:45:51.550Z,101510.78
2023-03-20T04:47:53.294Z,101504.59
2023-03-20T04:49:54.976Z,101513.56
2023-03-20T04:51:56.792Z,101506.91
2023-03-20T04:53:58.459Z,101501.03
2023-03-20T04:56:01.923Z,101499.09
2023-03-20T04:58:03.885Z,101491.06
2023-03-20T05:00:06.454Z,101498.00
2023-03-20T05:02:08.243Z,101493.91
2023-03-20T05:04:10.148Z,101482.56
2023-03-20T05:06:11.917Z,101480.47
2023-03-20T05:08:13.639Z,101474.41
2023-03-20T05:10:15.686Z,101475.53
2023-03-20T05:12:17.603Z,101472.81
2023-03-20T05:14:19.336Z,101485.19
2023-03-20T05:16:21.288Z,101480.22
2023-03-20T05:18:23.013Z,101481.13
2023-03-20T05:20:24.670Z,101481.97
2023-03-20T05:22:26.435Z,101491.63
2023-03-20T05:24:29.210Z,101478.09
2023-03-20T05:26:31.046Z,101479.63
2023-03-20T05:28:32.937Z,101485.94
2023-03-20T05:30:34.785Z,101471.88
2023-03-20T05:32:37.064Z,101485.06
2023-03-20T05:34:38.973Z,101479.09
2023-03-20T05:36:40.835Z,101480.22
2023-03-20T05:38:42.534Z,101483.13
2023-03-20T05:40:44.253Z,101478.16
2023-03-20T05:42:46.848Z,101472.69
2023-03-20T05:44:48.620Z,101471.69
2023-03-20T05:46:50.451Z,101482.22
2023-03-20T05:48:52.134Z,101476.00
2023-03-20T05:50:53.860Z,101483.28
2023-03-20T05:52:55.690Z,101467.91
2023-03-20T05:54:57.374Z,101475.38
2023-03-20T05:56:59.314Z,101466.91
2023-03-20T05:59:01.265Z,101469.31
2023-03-20T06:01:03.166Z,101469.28
2023-03-20T06:03:07.069Z,101468.88
2023-03-20T06:05:09.230Z,101474.91
2023-03-20T06:07:11.033Z,101478.53
2023-03-20T06:09:12.881Z,101471.41
2023-03-20T06:11:14.719Z,101475.72
2023-03-20T06:13:16.450Z,101477.97
2023-03-20T06:15:18.220Z,101474.75
2023-03-20T06:17:19.946Z,101472.50
2023-03-20T06:19:24.575Z,101468.41
2023-03-20T06:21:26.339Z,101477.63
2023-03-20T06:23:28.029Z,101466.63
2023-03-20T06:25:29.742Z,101478.47
2023-03-20T06:27:31.480Z,101476.88
2023-03-20T06:29:33.284Z,101477.69
2023-03-20T06:31:43.791Z,101477.38
2023-03-20T06:33:45.655Z,101485.38
2023-03-20T06:35:48.400Z,101491.63
2023-03-20T06:37:50.095Z,101489.09
2023-03-20T06:39:51.962Z,101492.44
2023-03-20T06:41:53.634Z,101500.06
2023-03-20T06:43:55.859Z,101492.25
2023-03-20T06:45:57.599Z,101495.72
2023-03-20T06:47:59.272Z,101490.47
2023-03-20T06:50:01.168Z,101495.75
2023-03-20T06:52:03.109Z,101483.03
2023-03-20T06:54:05.292Z,101496.81
2023-03-20T06:56:08.214Z,101496.03
2023-03-20T06:58:09.970Z,101495.56
2023-03-20T07:00:12.229Z,101502.81
2023-03-20T07:02:14.133Z,101494.56
2023-03-20T07:04:17.453Z,101499.28
2023-03-20T07:06:19.310Z,101496.63
2023-03-20T07:08:21.033Z,101501.41
2023-03-20T07:10:23.755Z,101502.78
2023-03-20T07:12:28.698Z,101497.00
2023-03-20T07:14:30.632Z,101507.59
2023-03-20T07:16:32.379Z,101498.75
2023-03-20T07:18:34.088Z,101501.53
2023-03-20T07:20:35.806Z,101499.94
2023-03-20T07:22:37.710Z,101494.84
2023-03-20T07:24:39.364Z,101509.50
2023-03-20T07:26:41.375Z,101501.72
2023-03-20T07:28:43.033Z,101489.75
2023-03-20T07:30:44.795Z,101486.19
2023-03-20T07:32:46.528Z,101486.56
2023-03-20T07:34:49.742Z,101484.41
2023-03-20T07:36:51.862Z,101485.41
2023-03-20T07:38:53.590Z,101483.34
2023-03-20T07:40:55.673Z,101480.81
2023-03-20T07:42:57.391Z,101477.09
2023-03-20T07:44:59.152Z,101479.84
2023-03-20T07:47:00.836Z,101477.56
2023-03-20T07:49:02.622Z,101478.97
2023-03-20T07:51:04.581Z,101483.16
2023-03-20T07:53:06.309Z,101489.09
2023-03-20T07:55:08.539Z,101494.00
2023-03-20T07:57:10.269Z,101487.19
2023-03-20T07:59:12.944Z,101486.09
2023-03-20T08:01:15.471Z,101501.72
2023-03-20T08:03:17.451Z,101490.31
2023-03-20T08:05:19.419Z,101498.25
2023-03-20T08:07:21.553Z,101495.69
2023-03-20T08:09:23.433Z,101481.25
2023-03-20T08:11:25.312Z,101500.88
2023-03-20T08:13:27.381Z,101495.75
2023-03-20T08:15:29.061Z,101494.50
2023-03-20T08:17:31.004Z,101489.72
2023-03-20T08:19:32.696Z,101496.69
2023-03-20T08:21:34.460Z,101492.66
2023-03-20T08:23:36.183Z,101496.66
2023-03-20T08:25:38.976Z,101481.69
2023-03-20T08:27:41.160Z,101485.59
2023-03-20T08:29:42.898Z,101489.72
2023-03-20T08:31:51.360Z,101474.72
2023-03-20T08:33:53.115Z,101480.78
2023-03-20T08:35:57.160Z,101481.31
2023-03-20T08:37:58.931Z,101493.31
2023-03-20T08:40:00.971Z,101483.91
2023-03-20T08:42:03.729Z,101492.28
2023-03-20T08:44:06.537Z,101498.22
2023-03-20T08:46:08.720Z,101483.25
2023-03-20T08:48:11.278Z,101502.63
2023-03-20T08:50:13.055Z,101480.44
2023-03-20T08:52:14.881Z,101487.19
2023-03-20T08:54:18.598Z,101479.06
2023-03-20T08:56:20.277Z,101498.03
2023-03-20T08:58:23.430Z,101495.88
2023-03-20T09:00:25.846Z,101483.88
2023-03-20T09:02:27.678Z,101482.56
2023-03-20T09:04:29.429Z,101487.63
2023-03-20T09:06:31.620Z,101487.84
2023-03-20T09:08:33.436Z,101488.72
2023-03-20T09:10:35.529Z,101488.06
2023-03-20T09:12:37.352Z,101482.72
2023-03-20T09:14:39.272Z,101490.44
2023-03-20T09:16:41.511Z,101502.78
2023-03-20T09:18:47.972Z,101489.72
2023-03-20T09:20:50.340Z,101495.06
2023-03-20T09:22:52.012Z,101504.34
2023-03-20T09:24:53.846Z,101497.91
2023-03-20T09:26:55.836Z,101505.34
2023-03-20T09:28:57.638Z,101494.50
2023-03-20T09:31:00.083Z,101492.97
2023-03-20T09:33:01.899Z,101489.88
2023-03-20T09:35:04.237Z,101501.34
2023-03-20T09:37:06.782Z,101494.94
2023-03-20T09:39:08.984Z,101513.16
2023-03-20T09:41:20.446Z,101496.78
2023-03-20T09:43:59.738Z,101507.53
2023-03-20T09:46:27.135Z,101493.28
2023-03-20T09:48:36.268Z,101492.00
2023-03-20T09:51:03.677Z,101500.63
2023-03-20T09:53:13.610Z,101502.38
2023-03-20T09:55:20.840Z,101501.06
2023-03-20T09:57:27.406Z,101501.44
2023-03-20T09:59:30.767Z,101504.09
2023-03-20T10:01:55.709Z,101501.91
2023-03-20T10:04:01.348Z,101494.94
2023-03-20T10:06:12.422Z,101492.84
2023-03-20T10:08:17.137Z,101491.88
2023-03-20T10:10:20.733Z,101494.53
2023-03-20T10:12:28.480Z,101490.66
2023-03-20T10:14:57.442Z,101494.34
2023-03-20T10:17:17.463Z,101498.91
2023-03-20T10:19:28.036Z,101499.41
2023-03-20T10:21:57.583Z,101492.06
2023-03-20T10:24:07.191Z,101495.13
2023-03-20T10:26:13.824Z,101504.66
2023-03-20T10:28:27.402Z,101502.22
2023-03-20T10:30:54.649Z,101499.53
2023-03-20T10:33:08.297Z,101489.47
2023-03-20T10:35:42.236Z,101488.22
2023-03-20T10:38:05.529Z,101483.09
2023-03-20T10:40:30.424Z,101479.94
2023-03-20T10:42:38.057Z,101483.97
2023-03-20T10:44:43.383Z,101478.38
2023-03-20T10:46:51.672Z,101481.63
2023-03-20T10:49:14.859Z,101485.41
2023-03-20T10:51:20.290Z,101483.00
2023-03-20T10:53:37.205Z,101480.84
2023-03-20T10:55:42.812Z,101482.91
2023-03-20T10:58:00.783Z,101489.47
2023-03-20T11:00:05.020Z,101485.41
2023-03-20T11:02:11.614Z,101481.41
2023-03-20T11:04:13.427Z,101488.53
2023-03-20T11:06:21.956Z,101494.97
2023-03-20T11:08:31.430Z,101488.25
2023-03-20T11:10:36.510Z,101487.59
2023-03-20T11:12:48.907Z,101483.78
2023-03-20T11:14:57.316Z,101480.31
2023-03-20T11:17:05.054Z,101488.66
2023-03-20T11:19:11.003Z,101483.22
2023-03-20T11:21:20.725Z,101480.75
2023-03-20T11:23:28.302Z,101480.84
2023-03-20T11:25:34.166Z,101482.31
2023-03-20T11:27:36.928Z,101478.88
2023-03-20T11:29:41.480Z,101485.06
2023-03-20T11:32:05.064Z,101474.00
2023-03-20T11:34:11.974Z,101472.28
2023-03-20T11:36:27.659Z,101470.88
2023-03-20T11:38:32.024Z,101472.50
2023-03-20T11:40:34.918Z,101484.75
2023-03-20T11:42:39.776Z,101473.75
2023-03-20T11:44:41.972Z,101470.50
2023-03-20T11:46:44.389Z,101471.31
2023-03-20T11:48:47.063Z,101475.53
2023-03-20T11:50:58.825Z,101476.00
2023-03-20T11:53:18.087Z,101475.47
2023-03-20T11:55:30.802Z,101469.78
2023-03-20T11:57:40.496Z,101476.84
2023-03-20T11:59:42.537Z,101473.34
2023-03-20T12:01:53.770Z,101474.31
2023-03-20T12:03:55.885Z,101463.53
2023-03-20T12:06:03.534Z,101458.59
2023-03-20T12:08:24.517Z,101465.75
2023-03-20T12:10:33.097Z,101471.69
2023-03-20T12:12:52.776Z,101465.81
2023-03-20T12:15:00.433Z,101456.97
2023-03-20T12:17:25.103Z,101457.16
2023-03-20T12:19:30.967Z,101472.66
2023-03-20T12:22:13.124Z,101458.59
2023-03-20T12:24:27.790Z,101463.09
2023-03-20T12:26:52.984Z,101457.91
2023-03-20T12:29:25.992Z,101464.97
2023-03-20T12:31:51.554Z,101449.22
2023-03-20T12:34:03.536Z,101450.44
2023-03-20T12:36:13.914Z,101456.69
2023-03-20T12:38:27.464Z,101451.66
2023-03-20T12:40:45.912Z,101448.09
2023-03-20T12:42:47.945Z,101461.13
2023-03-20T12:45:15.008Z,101450.84
2023-03-20T12:47:52.287Z,101450.56
2023-03-20T12:50:03.255Z,101451.25
2023-03-20T12:52:45.982Z,101449.28
2023-03-20T12:54:50.874Z,101442.31
2023-03-20T12:56:58.371Z,101437.22
2023-03-20T12:59:06.758Z,101445.00
2023-03-20T13:01:20.669Z,101430.91
2023-03-20T13:03:59.459Z,101446.66
2023-03-20T13:06:06.350Z,101436.28
2023-03-20T13:08:14.801Z,101429.47
2023-03-20T13:11:02.319Z,101428.00
2023-03-20T13:13:22.046Z,101413.72
2023-03-20T13:15:41.755Z,101419.81
2023-03-20T13:17:54.646Z,101410.94
2023-03-20T13:20:12.567Z,101413.91
2023-03-20T13:22:24.355Z,101407.59
2023-03-20T13:24:39.041Z,101425.53
2023-03-20T13:26:58.498Z,101425.59
2023-03-20T13:29:05.395Z,101406.53
2023-03-20T13:31:18.311Z,101416.00
2023-03-20T13:33:26.573Z,101416.19
2023-03-20T13:35:37.817Z,101418.91
2023-03-20T13:37:51.106Z,101413.78
2023-03-20T13:40:02.981Z,101404.94
2023-03-20T13:42:16.413Z,101399.31
2023-03-20T13:44:25.202Z,101406.72
2023-03-20T13:46:47.415Z,101404.38
2023-03-20T13:48:55.084Z,101401.84
2023-03-20T13:51:07.939Z,101398.34
2023-03-20T13:53:25.031Z,101400.13
2023-03-20T13:55:51.890Z,101403.66
2023-03-20T13:58:01.367Z,101406.16
2023-03-20T14:00:19.566Z,101400.91
2023-03-20T14:02:26.904Z,101405.34
2023-03-20T14:04:35.455Z,101392.75
2023-03-20T14:06:43.871Z,101392.06
2023-03-20T14:08:53.124Z,101387.81
2023-03-20T14:11:15.060Z,101393.59
2023-03-20T14:13:23.256Z,101397.81
2023-03-20T14:15:55.855Z,101392.84
2023-03-20T14:18:06.487Z,101398.88
2023-03-20T14:20:14.011Z,101389.56
2023-03-20T14:22:20.046Z,101387.84
2023-03-20T14:24:25.125Z,101391.50
2023-03-20T14:26:30.877Z,101388.69
2023-03-20T14:28:45.997Z,101386.22
2023-03-20T14:30:51.859Z,101392.03
2023-03-20T14:33:00.976Z,101394.81
2023-03-20T14:35:06.841Z,101392.97
2023-03-20T14:37:29.001Z,101385.19
2023-03-20T14:39:40.134Z,101389.44
2023-03-20T14:42:11.073Z,101372.06
2023-03-20T14:44:16.345Z,101373.97
2023-03-20T14:46:24.632Z,101382.56
2023-03-20T14:48:29.044Z,101390.88
2023-03-20T14:50:35.595Z,101384.09
2023-03-20T14:52:41.370Z,101385.53
2023-03-20T14:54:51.795Z,101385.66
2023-03-20T14:56:55.699Z,101382.06
2023-03-20T14:59:05.066Z,101388.44
2023-03-20T15:01:12.727Z,101388.44
2023-03-20T15:03:17.683Z,101380.69
2023-03-20T15:05:25.484Z,101378.63
2023-03-20T15:07:30.965Z,101378.25
2023-03-20T15:09:37.514Z,101378.53
2023-03-20T15:11:42.783Z,101369.84
2023-03-20T15:13:46.472Z,101372.44
2023-03-20T15:15:53.551Z,101371.22
2023-03-20T15:17:55.693Z,101361.28
2023-03-20T15:20:02.605Z,101368.34
2023-03-20T15:22:16.901Z,101373.78
2023-03-20T15:24:23.722Z,101373.03
2023-03-20T15:26:27.049Z,101362.84
2023-03-20T15:28:31.474Z,101363.72
2023-03-20T15:30:38.284Z,101361.31
2023-03-20T15:32:43.522Z,101366.63
2023-03-20T15:34:47.748Z,101357.19
2023-03-20T15:36:52.079Z,101372.41
2023-03-20T15:39:02.442Z,101361.13
2023-03-20T15:41:06.822Z,101366.94
2023-03-20T15:43:13.654Z,101369.34
2023-03-20T15:45:26.375Z,101364.94
2023-03-20T15:47:29.434Z,101369.47
2023-03-20T15:49:32.769Z,101358.28
2023-03-20T15:51:36.337Z,101361.63
2023-03-20T15:53:40.193Z,101364.91
2023-03-20T15:55:47.392Z,101361.59
2023-03-20T15:57:50.678Z,101357.69
2023-03-20T15:59:53.452Z,101354.41
2023-03-20T16:01:58.626Z,101353.28
2023-03-20T16:04:01.399Z,101345.50
2023-03-20T16:06:05.632Z,101364.00
2023-03-20T16:08:13.391Z,101366.09
2023-03-20T16:10:18.460Z,101365.72
2023-03-20T16:12:24.118Z,101369.41
2023-03-20T16:14:33.848Z,101348.94
2023-03-20T16:16:39.908Z,101357.38
2023-03-20T16:19:04.341Z,101357.38
2023-03-20T16:21:28.748Z,101357.53
2023-03-20T16:23:49.421Z,101355.63
2023-03-20T16:26:00.406Z,101364.28
2023-03-20T16:28:07.299Z,101360.94
2023-03-20T16:30:27.144Z,101360.34
2023-03-20T16:32:58.362Z,101357.28
2023-03-20T16:35:10.227Z,101346.06
2023-03-20T16:37:22.408Z,101345.28
2023-03-20T16:39:31.067Z,101349.50
2023-03-20T16:41:43.411Z,101360.16
2023-03-20T16:43:55.545Z,101354.97
2023-03-20T16:46:06.940Z,101349.53
2023-03-20T16:48:28.737Z,101343.66
2023-03-20T16:50:40.624Z,101353.09
2023-03-20T16:52:55.304Z,101355.09
2023-03-20T16:55:01.928Z,101355.41
2023-03-20T16:57:17.410Z,101352.66
2023-03-20T16:59:23.188Z,101348.19
2023-03-20T17:01:34.041Z,101334.88
2023-03-20T17:03:45.939Z,101352.16
2023-03-20T17:05:52.501Z,101347.41
2023-03-20T17:08:04.274Z,101340.00
2023-03-20T17:10:12.636Z,101345.94
2023-03-20T17:12:18.199Z,101349.38
2023-03-20T17:14:20.728Z,101349.75
2023-03-20T17:16:24.793Z,101351.19
2023-03-20T17:18:29.024Z,101350.44
2023-03-20T17:20:32.210Z,101350.69
2023-03-20T17:22:36.377Z,101346.75
2023-03-20T17:24:38.716Z,101346.06
2023-03-20T17:26:43.264Z,101343.72
2023-03-20T17:28:45.583Z,101345.47
2023-03-20T17:30:50.149Z,101346.25
2023-03-20T17:32:53.479Z,101364.69
2023-03-20T17:34:56.149Z,101358.06
2023-03-20T17:36:59.960Z,101355.41
2023-03-20T17:39:02.584Z,101349.16
2023-03-20T17:41:04.985Z,101358.41
2023-03-20T17:43:11.645Z,101358.34
2023-03-20T17:45:18.553Z,101359.38
2023-03-20T17:47:24.781Z,101368.56
2023-03-20T17:49:27.839Z,101363.03
2023-03-20T17:51:31.174Z,101366.59
2023-03-20T17:53:33.596Z,101359.16
2023-03-20T17:55:35.785Z,101367.88
2023-03-20T17:57:40.272Z,101362.72
2023-03-20T17:59:42.475Z,101370.38
2023-03-20T18:01:45.936Z,101367.75
2023-03-20T18:03:48.109Z,101359.09
2023-03-20T18:05:51.695Z,101362.63
2023-03-20T18:07:53.799Z,101365.91
2023-03-20T18:09:55.832Z,101364.03
2023-03-20T18:11:58.073Z,101365.63
2023-03-20T18:14:02.159Z,101367.44
2023-03-20T18:16:04.681Z,101359.84
2023-03-20T18:18:09.278Z,101366.28
2023-03-20T18:20:24.906Z,101368.53
2023-03-20T18:22:27.084Z,101368.19
2023-03-20T18:24:33.367Z,101365.84
2023-03-20T18:26:35.796Z,101361.44
2023-03-20T18:28:38.097Z,101354.56
2023-03-20T18:30:42.442Z,101367.97
2023-03-20T18:32:45.202Z,101361.16
2023-03-20T18:34:47.468Z,101363.00
2023-03-20T18:36:49.625Z,101357.06
2023-03-20T18:38:52.773Z,101362.91
2023-03-20T18:40:54.918Z,101364.78
2023-03-20T18:42:58.273Z,101362.44
2023-03-20T18:45:00.524Z,101369.06
2023-03-20T18:47:02.764Z,101367.38
2023-03-20T18:49:05.120Z,101362.53
2023-03-20T18:51:07.531Z,101363.03
2023-03-20T18:53:10.762Z,101368.69
2023-03-20T18:55:12.898Z,101360.28
2023-03-20T18:57:15.233Z,101363.69
2023-03-20T18:59:17.316Z,101363.78
2023-03-20T19:01:20.938Z,101363.00
2023-03-20T19:03:24.810Z,101367.19
2023-03-20T19:05:28.961Z,101366.59
2023-03-20T19:07:31.024Z,101358.78
2023-03-20T19:09:33.015Z,101360.78
2023-03-20T19:11:35.414Z,101366.84
2023-03-20T19:13:37.744Z,101365.97
2023-03-20T19:15:39.867Z,101360.53
2023-03-20T19:17:42.052Z,101364.28
2023-03-20T19:19:44.281Z,101355.97
2023-03-20T19:21:46.701Z,101366.13
2023-03-20T19:23:49.084Z,101362.53
2023-03-20T19:25:54.839Z,101352.88
2023-03-20T19:27:57.182Z,101347.97
2023-03-20T19:30:00.606Z,101344.50
2023-03-20T19:32:02.887Z,101355.63
2023-03-20T19:34:06.088Z,101350.41
2023-03-20T19:36:22.298Z,101349.25
2023-03-20T19:38:24.604Z,101342.44
2023-03-20T19:40:31.704Z,101344.25
2023-03-20T19:43:01.576Z,101360.56
2023-03-20T19:44:56.090Z,101342.28
2023-03-20T19:46:58.411Z,101340.00
2023-03-20T19:49:01.421Z,101345.31
2023-03-20T19:51:04.609Z,101337.31
2023-03-20T19:53:10.296Z,101334.84
2023-03-20T19:55:13.569Z,101340.75
2023-03-20T19:57:15.704Z,101334.75
2023-03-20T19:59:17.828Z,101336.50
2023-03-20T20:01:24.006Z,101327.97
2023-03-20T20:03:27.477Z,101333.94
2023-03-20T20:05:32.924Z,101337.50
2023-03-20T20:08:12.732Z,101331.59
2023-03-20T20:09:57.417Z,101336.19
2023-03-20T20:11:59.809Z,101336.69
2023-03-20T20:14:07.080Z,101325.03
2023-03-20T20:16:10.813Z,101326.69
2023-03-20T20:18:14.572Z,101320.25
2023-03-20T20:20:22.741Z,101321.53
2023-03-20T20:22:27.751Z,101320.47
2023-03-20T20:24:30.089Z,101317.66
2023-03-20T20:26:38.901Z,101321.25
2023-03-20T20:28:43.292Z,101317.56
2023-03-20T20:30:49.664Z,101307.31
2023-03-20T20:32:54.386Z,101301.16
2023-03-20T20:38:25.287Z,101308.09
2023-03-20T20:39:46.303Z,101304.69
2023-03-20T20:41:48.964Z,101309.25
2023-03-20T20:46:15.258Z,101310.06
2023-03-20T20:48:18.972Z,101307.25
2023-03-20T20:50:25.227Z,101301.50
2023-03-20T20:52:27.496Z,101302.03
2023-03-20T20:54:29.870Z,101302.72
2023-03-20T20:56:32.276Z,101305.91
2023-03-20T20:58:34.697Z,101290.56
2023-03-20T21:00:49.439Z,101300.22
2023-03-20T21:02:53.670Z,101293.75
2023-03-20T21:04:56.533Z,101299.59
2023-03-20T21:07:09.282Z,101296.75
2023-03-20T21:09:13.358Z,101287.41
2023-03-20T21:11:17.006Z,101278.09
2023-03-20T21:13:19.481Z,101285.16
2023-03-20T21:15:22.037Z,101278.09
2023-03-20T21:17:25.435Z,101283.91
2023-03-20T21:19:31.044Z,101280.34
2023-03-20T21:21:35.272Z,101279.69
2023-03-20T21:23:38.408Z,101281.22
2023-03-20T21:25:44.674Z,101275.41
2023-03-20T21:27:48.751Z,101283.56
2023-03-20T21:29:51.265Z,101276.09
2023-03-20T21:31:54.679Z,101277.69
2023-03-20T21:33:57.160Z,101273.22
2023-03-20T21:35:59.984Z,101273.94
2023-03-20T21:40:24.376Z,101275.13
2023-03-20T21:42:26.691Z,101268.38
2023-03-20T21:50:15.133Z,101268.88
2023-03-20T21:56:59.846Z,101274.31
2023-03-20T22:01:45.894Z,101267.09
2023-03-20T22:04:01.695Z,101270.94
2023-03-20T22:11:38.429Z,101273.88
2023-03-20T22:16:03.545Z,101261.84
2023-03-20T22:30:15.101Z,101254.81
2023-03-20T22:39:45.795Z,101243.34
2023-03-20T22:46:43.804Z,101235.97
2023-03-20T22:48:36.799Z,101235.31
2023-03-20T22:50:39.253Z,101234.94
2023-03-20T22:52:49.242Z,101232.75
2023-03-20T22:54:52.183Z,101232.00
2023-03-20T22:56:54.370Z,101222.38
2023-03-20T22:58:56.541Z,101227.41
2023-03-20T23:00:58.926Z,101227.63
2023-03-20T23:03:15.301Z,101219.63
2023-03-20T23:05:21.880Z,101225.16
2023-03-20T23:07:24.163Z,101215.63
2023-03-20T23:09:26.451Z,101213.13
2023-03-20T23:11:28.927Z,101205.47
2023-03-20T23:13:31.117Z,101208.91
2023-03-20T23:15:33.439Z,101194.31
2023-03-20T23:17:35.981Z,101195.31
2023-03-20T23:19:48.799Z,101192.47
2023-03-20T23:21:54.080Z,101198.22
2023-03-20T23:23:56.619Z,101188.88
2023-03-20T23:26:05.258Z,101185.22
2023-03-20T23:28:09.902Z,101181.88
2023-03-20T23:30:13.307Z,101174.78
2023-03-20T23:32:15.645Z,101174.03
2023-03-20T23:34:18.271Z,101174.91
2023-03-20T23:36:34.892Z,101170.13
2023-03-20T23:38:37.867Z,101167.19
2023-03-20T23:40:40.142Z,101163.63
2023-03-20T23:42:42.472Z,101168.03
2023-03-20T23:44:55.362Z,101163.81
2023-03-20T23:47:03.300Z,101156.16
2023-03-20T23:49:07.967Z,101153.63
2023-03-20T23:51:10.273Z,101151.81
2023-03-20T23:53:20.292Z,101158.97
2023-03-20T23:55:22.800Z,101149.31
2023-03-20T23:57:25.094Z,101137.38
2023-03-20T23:59:27.338Z,101129.69
